Time;durP1;ratioP1;P1;durP2;ratioP2;P2;SDS_P1;SDS_P2;PMS_P1;PMS_P2;Temp;Humidity;BMP_temperature;BMP_pressure;BME280_temperature;BME280_humidity;BME280_pressure;Samples;Min_cycle;Max_cycle;Signal;HPM_P1;HPM_P2
2024/01/15 00:00:30;;;;;;;8.23;1.75;;;;;;;;;;5061206;28;20101;-84
2024/01/15 00:02:57;;;;;;;7.70;1.25;;;;;;;;;;5058453;28;20099;-84
2024/01/15 00:05:24;;;;;;;7.07;1.52;;;;;;;;;;5057928;28;20037;-84
2024/01/15 00:07:51;;;;;;;6.50;1.50;;;;;;;;;;5090652;28;20179;-85
2024/01/15 00:10:18;;;;;;;10.32;2.22;;;;;;;;;;5082337;28;20032;-84
2024/01/15 00:12:46;;;;;;;8.80;2.08;;;;;;;;;;5071614;28;20036;-84
2024/01/15 00:15:13;;;;;;;9.18;2.22;;;;;;;;;;5077689;28;20111;-84
2024/01/15 00:17:40;;;;;;;13.88;1.90;;;;;;;;;;5090103;27;20502;-84
2024/01/15 00:20:08;;;;;;;8.32;1.40;;;;;;;;;;5095410;27;20048;-84
2024/01/15 00:22:35;;;;;;;7.38;1.65;;;;;;;;;;5076432;28;20151;-84
2024/01/15 00:25:03;;;;;;;12.32;1.20;;;;;;;;;;5062691;28;20043;-84
2024/01/15 00:27:32;;;;;;;5.00;1.40;;;;;;;;;;5100460;27;20043;-84
2024/01/15 00:29:59;;;;;;;8.10;1.13;;;;;;;;;;5063119;28;20036;-84
2024/01/15 00:32:26;;;;;;;15.48;1.60;;;;;;;;;;5061270;28;20039;-84
2024/01/15 00:34:54;;;;;;;9.15;1.50;;;;;;;;;;5098215;27;20401;-84
2024/01/15 00:37:21;;;;;;;6.38;1.50;;;;;;;;;;5098729;27;20044;-84
2024/01/15 00:39:48;;;;;;;9.93;1.48;;;;;;;;;;5060806;28;20062;-84
2024/01/15 00:42:15;;;;;;;14.07;1.88;;;;;;;;;;5076829;28;20078;-84
2024/01/15 00:44:43;;;;;;;12.73;1.95;;;;;;;;;;5061737;28;20050;-84
2024/01/15 00:47:10;;;;;;;8.50;2.17;;;;;;;;;;5075197;28;20044;-84
2024/01/15 00:49:37;;;;;;;9.05;1.17;;;;;;;;;;5060330;28;20077;-84
2024/01/15 00:52:04;;;;;;;7.35;1.33;;;;;;;;;;5075445;28;20032;-84
2024/01/15 00:54:32;;;;;;;8.80;2.22;;;;;;;;;;5044522;28;20128;-85
2024/01/15 00:57:01;;;;;;;5.72;1.70;;;;;;;;;;5095298;27;20100;-84
2024/01/15 00:59:28;;;;;;;9.85;1.10;;;;;;;;;;5077402;28;20404;-84
2024/01/15 01:01:55;;;;;;;10.32;1.65;;;;;;;;;;5067785;27;20132;-85
2024/01/15 01:04:22;;;;;;;9.07;1.23;;;;;;;;;;5070415;28;20374;-85
2024/01/15 01:06:49;;;;;;;5.13;1.10;;;;;;;;;;5077893;28;20036;-84
2024/01/15 01:09:16;;;;;;;6.40;1.23;;;;;;;;;;5084534;28;20043;-84
2024/01/15 01:11:44;;;;;;;10.07;1.73;;;;;;;;;;5090349;27;20043;-84
2024/01/15 01:14:11;;;;;;;5.57;1.08;;;;;;;;;;5079042;28;20043;-84
2024/01/15 01:16:39;;;;;;;6.78;1.33;;;;;;;;;;5087052;27;20047;-85
2024/01/15 01:19:07;;;;;;;9.43;1.58;;;;;;;;;;5062370;28;20488;-84
2024/01/15 01:21:34;;;;;;;7.88;1.73;;;;;;;;;;5080593;27;20043;-84
2024/01/15 01:24:02;;;;;;;6.97;1.53;;;;;;;;;;5109600;27;20044;-84
2024/01/15 01:26:29;;;;;;;4.65;1.10;;;;;;;;;;5070346;28;20393;-84
2024/01/15 01:28:59;;;;;;;5.53;1.42;;;;;;;;;;5071007;28;20515;-84
2024/01/15 01:31:28;;;;;;;8.85;1.33;;;;;;;;;;5054902;28;20044;-85
2024/01/15 01:33:55;;;;;;;8.43;1.17;;;;;;;;;;5056565;28;20063;-85
2024/01/15 01:36:22;;;;;;;5.22;1.55;;;;;;;;;;5077025;28;20042;-85
2024/01/15 01:38:49;;;;;;;4.22;1.02;;;;;;;;;;5056572;28;20059;-84
2024/01/15 01:41:16;;;;;;;7.40;1.15;;;;;;;;;;5058774;28;20044;-84
2024/01/15 01:43:44;;;;;;;5.22;1.15;;;;;;;;;;5084492;27;20043;-84
2024/01/15 01:46:11;;;;;;;9.43;1.30;;;;;;;;;;5089648;27;20036;-84
2024/01/15 01:48:38;;;;;;;4.90;1.10;;;;;;;;;;5075583;28;20036;-84
2024/01/15 01:51:05;;;;;;;6.88;1.30;;;;;;;;;;5084409;28;20043;-84
2024/01/15 01:53:33;;;;;;;9.25;1.42;;;;;;;;;;5075514;27;20047;-84
2024/01/15 01:56:00;;;;;;;6.00;0.90;;;;;;;;;;5078404;28;20027;-85
2024/01/15 01:58:28;;;;;;;5.45;1.48;;;;;;;;;;5062524;28;20100;-85
2024/01/15 02:00:55;;;;;;;11.32;1.48;;;;;;;;;;5054867;28;20070;-85
2024/01/15 02:03:22;;;;;;;8.48;1.77;;;;;;;;;;5092564;27;20040;-85
2024/01/15 02:05:49;;;;;;;9.88;1.20;;;;;;;;;;5065473;28;20175;-85
2024/01/15 02:08:16;;;;;;;9.10;0.80;;;;;;;;;;5085960;27;20538;-85
2024/01/15 02:10:44;;;;;;;6.25;1.08;;;;;;;;;;5077684;27;20051;-85
2024/01/15 02:13:11;;;;;;;3.20;0.93;;;;;;;;;;5079816;28;20048;-84
2024/01/15 02:15:38;;;;;;;5.05;0.85;;;;;;;;;;5089001;27;20043;-85
2024/01/15 02:18:07;;;;;;;7.38;1.20;;;;;;;;;;5063147;28;20181;-85
2024/01/15 02:20:35;;;;;;;1.52;0.50;;;;;;;;;;5060093;28;20518;-85
2024/01/15 02:23:07;;;;;;;3.05;0.70;;;;;;;;;;5091997;27;20040;-85
2024/01/15 02:25:35;;;;;;;3.20;0.65;;;;;;;;;;5054069;28;20042;-84
2024/01/15 02:28:02;;;;;;;4.55;0.82;;;;;;;;;;5071286;28;20848;-85
2024/01/15 02:30:30;;;;;;;3.28;0.85;;;;;;;;;;5098180;27;20038;-85
2024/01/15 02:32:58;;;;;;;2.70;0.88;;;;;;;;;;5060796;28;20047;-85
2024/01/15 02:35:25;;;;;;;3.42;0.75;;;;;;;;;;5062394;28;20072;-85
2024/01/15 02:37:52;;;;;;;0.93;0.55;;;;;;;;;;5071276;28;20142;-85
2024/01/15 02:40:19;;;;;;;3.83;0.73;;;;;;;;;;5078619;28;20526;-84
2024/01/15 02:42:46;;;;;;;2.85;1.00;;;;;;;;;;5075000;28;20047;-85
2024/01/15 02:45:13;;;;;;;3.90;0.88;;;;;;;;;;5074769;28;20036;-84
2024/01/15 02:47:41;;;;;;;4.78;0.95;;;;;;;;;;5085207;27;20487;-84
2024/01/15 02:50:08;;;;;;;6.32;1.05;;;;;;;;;;5084952;27;20042;-84
2024/01/15 02:52:35;;;;;;;7.78;1.00;;;;;;;;;;5055599;28;20047;-84
2024/01/15 02:55:02;;;;;;;6.30;0.68;;;;;;;;;;5090636;27;20408;-84
2024/01/15 02:57:29;;;;;;;4.35;0.80;;;;;;;;;;5062803;28;20100;-85
2024/01/15 02:59:59;;;;;;;8.25;1.42;;;;;;;;;;5076476;28;20461;-84
2024/01/15 03:02:26;;;;;;;8.20;1.40;;;;;;;;;;5089639;27;20053;-84
2024/01/15 03:04:53;;;;;;;8.77;1.33;;;;;;;;;;5073661;27;20066;-84
2024/01/15 03:07:21;;;;;;;8.15;1.02;;;;;;;;;;5065490;28;20079;-84
2024/01/15 03:09:49;;;;;;;5.90;1.10;;;;;;;;;;5088059;27;20039;-85
2024/01/15 03:12:18;;;;;;;2.40;1.02;;;;;;;;;;5076933;28;20035;-84
2024/01/15 03:14:46;;;;;;;7.22;1.40;;;;;;;;;;5059220;28;20501;-84
2024/01/15 03:17:13;;;;;;;5.70;0.90;;;;;;;;;;5086386;28;20445;-84
2024/01/15 03:19:41;;;;;;;4.32;1.02;;;;;;;;;;5058570;28;20485;-84
2024/01/15 03:22:09;;;;;;;5.70;0.98;;;;;;;;;;5092700;28;20085;-84
2024/01/15 03:24:36;;;;;;;6.82;1.98;;;;;;;;;;5074657;28;20036;-84
2024/01/15 03:27:03;;;;;;;9.68;1.67;;;;;;;;;;5069180;28;20064;-84
2024/01/15 03:29:32;;;;;;;8.27;1.45;;;;;;;;;;5077639;28;20040;-84
2024/01/15 03:31:59;;;;;;;;;;;;;;;;;;5089095;27;20039;-84
2024/01/15 03:34:26;;;;;;;9.00;1.88;;;;;;;;;;5104722;27;19931;-84
2024/01/15 03:36:54;;;;;;;10.02;1.80;;;;;;;;;;5087596;27;20052;-84
2024/01/15 03:39:21;;;;;;;11.73;1.63;;;;;;;;;;5056217;28;20067;-84
2024/01/15 03:41:48;;;;;;;9.85;1.98;;;;;;;;;;5080545;28;20071;-85
2024/01/15 03:44:15;;;;;;;10.40;2.60;;;;;;;;;;5071863;28;20404;-84
2024/01/15 03:46:43;;;;;;;11.27;1.95;;;;;;;;;;5060727;28;20044;-84
2024/01/15 03:49:10;;;;;;;11.73;1.77;;;;;;;;;;5079123;28;20032;-85
2024/01/15 03:51:37;;;;;;;8.95;2.15;;;;;;;;;;5069383;28;20028;-84
2024/01/15 03:54:04;;;;;;;10.88;1.90;;;;;;;;;;5110514;27;20044;-84
2024/01/15 03:56:32;;;;;;;10.90;1.67;;;;;;;;;;5076403;28;20096;-84
2024/01/15 03:58:59;;;;;;;8.20;1.42;;;;;;;;;;5067003;28;20131;-85
2024/01/15 04:01:27;;;;;;;10.27;1.95;;;;;;;;;;5100505;27;20373;-84
2024/01/15 04:03:55;;;;;;;8.13;1.30;;;;;;;;;;5081225;28;20044;-84
2024/01/15 04:06:22;;;;;;;10.05;1.30;;;;;;;;;;5047718;28;20169;-84
2024/01/15 04:08:49;;;;;;;11.75;1.70;;;;;;;;;;5067125;28;20085;-85
2024/01/15 04:11:16;;;;;;;7.25;1.38;;;;;;;;;;5091196;27;20037;-85
2024/01/15 04:13:44;;;;;;;8.90;1.48;;;;;;;;;;5061441;28;20039;-85
2024/01/15 04:16:11;;;;;;;7.97;1.50;;;;;;;;;;5079170;28;20076;-84
2024/01/15 04:18:38;;;;;;;9.93;1.50;;;;;;;;;;5087638;27;20079;-85
2024/01/15 04:21:06;;;;;;;8.13;1.35;;;;;;;;;;5074084;28;20119;-84
2024/01/15 04:23:33;;;;;;;6.93;1.42;;;;;;;;;;5071742;28;20067;-84
2024/01/15 04:26:01;;;;;;;6.57;1.67;;;;;;;;;;5077797;28;20064;-85
2024/01/15 04:28:28;;;;;;;9.55;1.30;;;;;;;;;;5098869;27;20155;-85
2024/01/15 04:30:55;;;;;;;9.90;2.13;;;;;;;;;;5073042;28;20045;-85
2024/01/15 04:33:22;;;;;;;15.80;1.90;;;;;;;;;;5066555;28;20045;-84
2024/01/15 04:35:49;;;;;;;7.78;2.10;;;;;;;;;;5053896;28;20051;-85
2024/01/15 04:38:15;;;;;;;7.63;1.50;;;;;;;;;;5107221;27;20774;-85
2024/01/15 04:40:42;;;;;;;7.88;1.30;;;;;;;;;;5074837;28;20968;-85
2024/01/15 04:43:09;;;;;;;8.57;1.58;;;;;;;;;;5044116;28;20044;-85
2024/01/15 04:45:36;;;;;;;10.48;1.33;;;;;;;;;;5077102;28;20044;-85
2024/01/15 04:48:04;;;;;;;7.28;1.15;;;;;;;;;;5062996;28;20043;-85
2024/01/15 04:50:32;;;;;;;6.50;1.20;;;;;;;;;;5070444;28;20047;-85
2024/01/15 04:53:00;;;;;;;6.53;1.67;;;;;;;;;;5076791;28;20127;-89
2024/01/15 04:55:27;;;;;;;3.67;0.70;;;;;;;;;;5103168;27;20035;-85
2024/01/15 04:57:55;;;;;;;4.38;1.40;;;;;;;;;;5087580;27;20058;-84
2024/01/15 05:00:22;;;;;;;3.40;0.63;;;;;;;;;;5092272;27;20059;-85
2024/01/15 05:02:50;;;;;;;3.72;0.68;;;;;;;;;;5069049;28;20430;-85
2024/01/15 05:05:17;;;;;;;4.22;0.65;;;;;;;;;;5061054;28;20110;-85
2024/01/15 05:07:44;;;;;;;2.80;0.90;;;;;;;;;;5054832;28;20036;-85
2024/01/15 05:10:11;;;;;;;4.22;0.80;;;;;;;;;;5082750;28;20093;-85
2024/01/15 05:12:39;;;;;;;5.40;0.88;;;;;;;;;;5089972;27;20089;-85
2024/01/15 05:15:06;;;;;;;2.58;0.63;;;;;;;;;;5074086;28;20046;-86
2024/01/15 05:17:33;;;;;;;2.90;0.63;;;;;;;;;;5058367;28;20032;-85
2024/01/15 05:20:01;;;;;;;1.27;0.60;;;;;;;;;;5092356;27;20063;-85
2024/01/15 05:22:28;;;;;;;5.22;1.00;;;;;;;;;;5064733;28;20043;-85
2024/01/15 05:24:55;;;;;;;4.07;0.80;;;;;;;;;;5071544;28;20041;-85
2024/01/15 05:27:22;;;;;;;3.75;0.80;;;;;;;;;;5099778;27;20464;-85
2024/01/15 05:29:49;;;;;;;3.80;0.60;;;;;;;;;;5069952;28;20040;-85
2024/01/15 05:32:17;;;;;;;4.65;1.00;;;;;;;;;;5059942;28;22799;-85
2024/01/15 05:34:44;;;;;;;5.47;0.65;;;;;;;;;;5057504;28;20046;-85
2024/01/15 05:37:11;;;;;;;3.00;0.90;;;;;;;;;;5105205;27;20043;-85
2024/01/15 05:39:38;;;;;;;6.78;0.88;;;;;;;;;;5070522;28;20060;-84
2024/01/15 05:42:05;;;;;;;4.03;1.00;;;;;;;;;;5061202;28;20044;-85
2024/01/15 05:44:32;;;;;;;5.93;1.48;;;;;;;;;;5057173;28;20404;-85
2024/01/15 05:46:59;;;;;;;7.10;1.08;;;;;;;;;;5091450;27;20177;-85
2024/01/15 05:49:27;;;;;;;4.15;1.02;;;;;;;;;;5069400;28;20164;-85
2024/01/15 05:51:54;;;;;;;5.90;1.00;;;;;;;;;;5097751;27;20041;-85
2024/01/15 05:54:21;;;;;;;3.55;1.20;;;;;;;;;;5077046;28;20097;-85
2024/01/15 05:56:49;;;;;;;4.53;0.93;;;;;;;;;;5054007;28;20087;-85
2024/01/15 05:59:16;;;;;;;3.22;0.88;;;;;;;;;;5094700;27;20040;-85
2024/01/15 06:01:44;;;;;;;6.00;1.15;;;;;;;;;;5083292;27;20381;-86
2024/01/15 06:04:11;;;;;;;1.67;0.65;;;;;;;;;;5084085;28;22710;-85
2024/01/15 06:06:38;;;;;;;4.78;0.90;;;;;;;;;;5099056;27;20063;-84
2024/01/15 06:09:07;;;;;;;7.13;1.00;;;;;;;;;;5058015;28;20051;-85
2024/01/15 06:11:34;;;;;;;6.10;1.58;;;;;;;;;;5036081;28;20047;-85
2024/01/15 06:14:01;;;;;;;5.97;1.35;;;;;;;;;;5088741;27;20123;-84
2024/01/15 06:16:29;;;;;;;2.30;0.88;;;;;;;;;;5087009;27;20083;-84
2024/01/15 06:18:56;;;;;;;4.38;0.80;;;;;;;;;;5066952;28;20114;-84
2024/01/15 06:21:24;;;;;;;4.32;0.70;;;;;;;;;;5087631;27;20054;-84
2024/01/15 06:23:51;;;;;;;10.00;1.30;;;;;;;;;;5072200;28;20050;-84
2024/01/15 06:26:19;;;;;;;7.65;1.08;;;;;;;;;;5078691;28;20352;-84
2024/01/15 06:28:46;;;;;;;3.88;1.20;;;;;;;;;;5054146;28;20074;-85
2024/01/15 06:31:14;;;;;;;5.25;1.35;;;;;;;;;;5077464;28;20036;-84
2024/01/15 06:33:41;;;;;;;4.20;1.15;;;;;;;;;;5082949;27;20512;-84
2024/01/15 06:36:08;;;;;;;4.85;0.90;;;;;;;;;;5056232;28;20055;-84
2024/01/15 06:38:35;;;;;;;8.38;1.10;;;;;;;;;;5082113;27;20048;-84
2024/01/15 06:41:01;;;;;;;5.03;0.88;;;;;;;;;;5073316;28;20040;-84
2024/01/15 06:43:30;;;;;;;7.50;1.55;;;;;;;;;;5079006;28;20040;-84
2024/01/15 06:45:58;;;;;;;2.40;1.25;;;;;;;;;;5060354;28;20054;-85
2024/01/15 06:48:25;;;;;;;4.77;1.17;;;;;;;;;;5090423;27;20085;-85
2024/01/15 06:51:00;;;;;;;9.02;1.30;;;;;;;;;;5070779;28;20341;-85
2024/01/15 07:00:38;;;;;;;7.75;1.45;;;;;;;;;;4983422;28;20425;-87
2024/01/15 07:03:15;;;;;;;8.88;1.52;;;;;;;;;;4948102;28;20043;-87
2024/01/15 07:05:43;;;;;;;7.50;1.70;;;;;;;;;;4971676;28;20085;-87
2024/01/15 07:08:13;;;;;;;9.90;1.30;;;;;;;;;;4985943;28;20051;-86
2024/01/15 07:10:55;;;;;;;10.73;1.50;;;;;;;;;;5012341;28;20044;-87
2024/01/15 07:13:22;;;;;;;10.13;1.65;;;;;;;;;;5026340;28;20036;-87
2024/01/15 07:15:55;;;;;;;7.78;1.48;;;;;;;;;;5007444;28;20032;-87
2024/01/15 07:18:25;;;;;;;11.77;1.90;;;;;;;;;;5025417;28;20048;-88
2024/01/15 07:20:53;;;;;;;7.00;1.80;;;;;;;;;;5019552;28;20052;-87
2024/01/15 07:23:20;;;;;;;10.90;1.73;;;;;;;;;;5005067;28;20139;-87
2024/01/15 07:25:53;;;;;;;8.55;1.40;;;;;;;;;;5016658;28;20041;-88
2024/01/15 07:28:20;;;;;;;13.13;1.67;;;;;;;;;;5036188;28;20052;-87
2024/01/15 07:30:52;;;;;;;8.90;2.25;;;;;;;;;;5019519;28;20042;-87
2024/01/15 07:33:22;;;;;;;9.52;1.70;;;;;;;;;;5012913;28;20039;-87
2024/01/15 07:35:52;;;;;;;6.25;1.55;;;;;;;;;;5089662;28;20036;-87
2024/01/15 07:38:28;;;;;;;7.70;1.88;;;;;;;;;;5064577;28;21206;-87
2024/01/15 07:41:08;;;;;;;;;;;;;;;;;;5090072;28;20040;-87
2024/01/15 07:43:41;;;;;;;10.70;1.63;;;;;;;;;;5067245;28;19916;-87
2024/01/15 07:46:11;;;;;;;12.50;1.77;;;;;;;;;;5053336;28;20125;-87
2024/01/15 07:48:37;;;;;;;8.63;1.60;;;;;;;;;;5069639;28;20040;-87
2024/01/15 07:51:10;;;;;;;5.55;1.40;;;;;;;;;;5071027;28;20958;-87
2024/01/15 07:54:14;;;;;;;10.25;1.75;;;;;;;;;;5093725;27;20143;-88
2024/01/15 07:57:07;;;;;;;7.88;1.67;;;;;;;;;;5060280;28;20123;-88
2024/01/15 08:00:01;;;;;;;;;;;;;;;;;;;;;
2024/01/15 08:02:47;;;;;;;7.85;1.20;;;;;;;;;;5073311;28;20047;-88
2024/01/15 08:05:36;;;;;;;;;;;;;;;;;;;;;
2024/01/15 08:08:13;;;;;;;10.38;2.53;;;;;;;;;;5068247;28;20087;-88
2024/01/15 08:11:15;;;;;;;6.40;1.40;;;;;;;;;;5064074;28;23268;-88
2024/01/15 08:14:09;;;;;;;8.70;1.60;;;;;;;;;;5074403;27;20040;-89
2024/01/15 08:16:54;;;;;;;7.03;1.48;;;;;;;;;;5052422;28;20101;-88
2024/01/15 08:19:32;;;;;;;12.80;1.50;;;;;;;;;;5070037;28;20062;-88
2024/01/15 08:22:02;;;;;;;;;;;;;;;;;;5072233;28;20044;-89
2024/01/15 08:24:35;;;;;;;8.88;1.50;;;;;;;;;;5063309;28;19925;-87
2024/01/15 08:27:02;;;;;;;12.82;1.80;;;;;;;;;;5061802;28;20097;-89
2024/01/15 08:29:33;;;;;;;11.52;1.80;;;;;;;;;;5067296;28;20440;-89
2024/01/15 08:32:13;;;;;;;9.25;1.50;;;;;;;;;;5049079;28;20051;-87
2024/01/15 08:34:40;;;;;;;10.43;1.77;;;;;;;;;;5062809;28;20125;-89
2024/01/15 08:37:08;;;;;;;6.60;1.33;;;;;;;;;;5075354;28;20046;-88
2024/01/15 08:39:38;;;;;;;9.82;2.08;;;;;;;;;;5054411;28;20060;-88
2024/01/15 08:42:05;;;;;;;9.13;2.13;;;;;;;;;;5053464;28;20052;-88
2024/01/15 08:45:07;;;;;;;;;;;;;;;;;;;;;
2024/01/15 09:49:54;;;;;;;4.90;2.00;;;;;;;;;;4793175;29;20053;-86
2024/01/15 09:52:20;;;;;;;6.13;1.20;;;;;;;;;;4806630;29;20174;-85
2024/01/15 09:54:47;;;;;;;7.38;1.10;;;;;;;;;;4800844;29;20092;-85
2024/01/15 09:57:14;;;;;;;4.25;1.10;;;;;;;;;;4819713;29;20114;-85
2024/01/15 09:59:41;;;;;;;8.87;1.40;;;;;;;;;;4801053;29;20065;-86
2024/01/15 10:02:09;;;;;;;8.52;1.20;;;;;;;;;;4824383;29;20076;-86
2024/01/15 10:04:37;;;;;;;;;;;;;;;;;;4901613;29;20046;-86
2024/01/15 10:07:04;;;;;;;6.70;1.67;;;;;;;;;;4991918;28;20329;-85
2024/01/15 10:09:35;;;;;;;6.50;1.20;;;;;;;;;;5037467;28;20670;-86
2024/01/15 10:12:02;;;;;;;3.85;1.00;;;;;;;;;;5001411;28;20108;-86
2024/01/15 10:14:29;;;;;;;7.28;1.33;;;;;;;;;;5005213;28;20068;-85
2024/01/15 10:16:57;;;;;;;10.55;1.33;;;;;;;;;;5018795;28;20046;-85
2024/01/15 10:19:25;;;;;;;7.85;1.45;;;;;;;;;;5002644;28;20045;-86
2024/01/15 10:21:52;;;;;;;7.45;1.50;;;;;;;;;;4981680;28;20934;-86
2024/01/15 10:24:19;;;;;;;4.03;0.98;;;;;;;;;;4981294;28;20053;-85
2024/01/15 10:26:48;;;;;;;8.35;1.38;;;;;;;;;;5001345;28;20525;-85
2024/01/15 10:29:15;;;;;;;4.95;1.20;;;;;;;;;;4990264;28;20033;-86
2024/01/15 10:31:42;;;;;;;4.70;1.05;;;;;;;;;;4986708;28;20033;-86
2024/01/15 10:34:15;;;;;;;4.63;1.00;;;;;;;;;;4981150;28;20083;-86
2024/01/15 10:36:42;;;;;;;5.93;1.25;;;;;;;;;;4992687;28;20106;-85
2024/01/15 10:39:09;;;;;;;6.95;1.50;;;;;;;;;;5019638;28;20051;-86
2024/01/15 10:41:37;;;;;;;5.10;1.15;;;;;;;;;;4999346;28;20396;-86
2024/01/15 10:44:04;;;;;;;7.28;1.15;;;;;;;;;;5015002;28;20041;-86
2024/01/15 10:46:32;;;;;;;3.17;1.23;;;;;;;;;;5001100;28;20045;-86
2024/01/15 10:48:59;;;;;;;9.02;1.42;;;;;;;;;;5001942;28;20537;-86
2024/01/15 10:51:26;;;;;;;9.60;1.40;;;;;;;;;;4998919;28;20052;-86
2024/01/15 10:53:54;;;;;;;6.25;1.08;;;;;;;;;;4997637;28;20045;-85
2024/01/15 10:56:22;;;;;;;4.40;1.08;;;;;;;;;;5010539;28;20142;-86
2024/01/15 10:58:52;;;;;;;3.22;0.90;;;;;;;;;;4987358;28;20511;-85
2024/01/15 11:01:20;;;;;;;5.68;1.08;;;;;;;;;;4988175;28;20446;-86
2024/01/15 11:03:49;;;;;;;2.80;1.13;;;;;;;;;;5003986;28;20056;-85
2024/01/15 11:06:19;;;;;;;3.53;1.25;;;;;;;;;;5016648;28;20067;-86
2024/01/15 11:08:50;;;;;;;3.95;1.42;;;;;;;;;;4986939;28;20043;-86
2024/01/15 11:11:17;;;;;;;3.47;0.90;;;;;;;;;;5006478;28;20052;-86
2024/01/15 11:13:49;;;;;;;10.50;1.10;;;;;;;;;;4986397;28;20485;-85
2024/01/15 11:16:17;;;;;;;4.85;0.80;;;;;;;;;;5011996;28;20055;-86
2024/01/15 11:19:03;;;;;;;1.48;0.90;;;;;;;;;;4984182;28;20047;-85
2024/01/15 11:21:32;;;;;;;4.50;0.82;;;;;;;;;;4982973;28;20970;-86
2024/01/15 11:24:00;;;;;;;4.45;1.00;;;;;;;;;;5013440;28;20060;-85
2024/01/15 11:26:32;;;;;;;2.47;1.00;;;;;;;;;;4980945;28;20075;-85
2024/01/15 11:29:06;;;;;;;3.28;0.80;;;;;;;;;;5013631;28;20040;-86
2024/01/15 11:31:39;;;;;;;3.10;1.15;;;;;;;;;;5013966;28;20115;-86
2024/01/15 11:34:06;;;;;;;4.80;1.08;;;;;;;;;;5016844;28;20052;-86
2024/01/15 11:36:52;;;;;;;8.55;1.13;;;;;;;;;;4997515;28;20048;-86
2024/01/15 11:39:32;;;;;;;6.18;1.02;;;;;;;;;;5011372;28;20044;-86
2024/01/15 11:42:03;;;;;;;4.70;0.80;;;;;;;;;;5015602;28;20051;-85
2024/01/15 11:44:32;;;;;;;1.48;0.70;;;;;;;;;;4997512;28;20036;-86
2024/01/15 11:47:03;;;;;;;4.20;0.70;;;;;;;;;;5019863;28;20029;-87
2024/01/15 11:49:49;;;;;;;0.60;0.60;;;;;;;;;;4994420;28;20033;-87
2024/01/15 11:52:30;;;;;;;2.20;0.70;;;;;;;;;;5000021;28;20052;-88
2024/01/15 11:55:28;;;;;;;;;;;;;;;;;;;;;
2024/01/15 11:58:07;;;;;;;2.30;0.50;;;;;;;;;;5008446;28;20756;-88
2024/01/15 12:00:37;;;;;;;2.60;0.90;;;;;;;;;;4978549;28;20037;-87
2024/01/15 12:03:55;;;;;;;0.80;0.50;;;;;;;;;;5017488;28;20045;-87
2024/01/15 12:06:38;;;;;;;2.30;0.73;;;;;;;;;;4941417;28;20046;-87
2024/01/15 12:09:18;;;;;;;1.65;0.50;;;;;;;;;;4935930;28;20210;-87
2024/01/15 12:11:52;;;;;;;3.00;0.70;;;;;;;;;;4931659;28;20534;-88
2024/01/15 12:14:38;;;;;;;1.90;0.40;;;;;;;;;;5021440;28;20384;-87
2024/01/15 12:17:20;;;;;;;1.67;0.60;;;;;;;;;;5005132;28;20497;-87
2024/01/15 12:20:00;;;;;;;0.90;0.50;;;;;;;;;;5006679;28;20044;-87
2024/01/15 12:22:27;;;;;;;0.95;0.50;;;;;;;;;;5005107;28;20053;-87
2024/01/15 12:24:55;;;;;;;0.87;0.70;;;;;;;;;;5001999;28;20095;-87
2024/01/15 12:27:21;;;;;;;0.82;0.40;;;;;;;;;;5002295;28;20721;-87
2024/01/15 12:29:50;;;;;;;0.90;0.60;;;;;;;;;;4982378;28;20672;-86
2024/01/15 12:32:17;;;;;;;;;;;;;;;;;;4985459;28;20165;-87
2024/01/15 12:34:45;;;;;;;3.13;0.60;;;;;;;;;;5017226;28;19932;-87
2024/01/15 12:37:12;;;;;;;0.95;0.70;;;;;;;;;;5020777;28;20797;-87
2024/01/15 12:39:39;;;;;;;1.90;0.82;;;;;;;;;;4998554;28;20072;-87
2024/01/15 12:42:07;;;;;;;1.90;0.80;;;;;;;;;;4998889;28;20044;-87
2024/01/15 12:44:35;;;;;;;0.85;0.70;;;;;;;;;;4998064;28;20037;-87
2024/01/15 12:47:02;;;;;;;3.10;0.88;;;;;;;;;;5015071;28;20040;-87
2024/01/15 12:49:34;;;;;;;2.63;1.02;;;;;;;;;;4982654;28;20041;-87
2024/01/15 12:52:01;;;;;;;2.67;1.13;;;;;;;;;;4995921;28;20932;-87
2024/01/15 12:54:34;;;;;;;1.33;1.05;;;;;;;;;;5006325;28;20041;-87
2024/01/15 12:57:03;;;;;;;4.20;0.90;;;;;;;;;;5003728;28;20033;-87
2024/01/15 12:59:32;;;;;;;3.38;1.15;;;;;;;;;;5018134;28;20037;-87
2024/01/15 13:01:59;;;;;;;3.05;1.00;;;;;;;;;;5004088;28;20379;-87
2024/01/15 13:04:37;;;;;;;2.22;1.08;;;;;;;;;;4997319;28;20400;-87
2024/01/15 13:07:05;;;;;;;6.32;1.65;;;;;;;;;;5007003;28;20090;-87
2024/01/15 13:09:36;;;;;;;5.45;1.10;;;;;;;;;;5022893;28;20215;-87
2024/01/15 13:12:03;;;;;;;2.75;1.33;;;;;;;;;;4987445;28;20948;-87
2024/01/15 13:14:32;;;;;;;5.00;1.53;;;;;;;;;;5009470;28;20072;-87
2024/01/15 13:17:03;;;;;;;4.22;1.00;;;;;;;;;;5020755;28;20037;-87
2024/01/15 13:19:31;;;;;;;5.15;1.30;;;;;;;;;;5003970;28;20049;-87
2024/01/15 13:22:03;;;;;;;;;;;;;;;;;;4986139;28;20128;-87
2024/01/15 13:24:36;;;;;;;6.25;1.13;;;;;;;;;;5003833;28;19920;-87
2024/01/15 13:27:04;;;;;;;9.30;1.77;;;;;;;;;;4982279;28;20076;-87
2024/01/15 13:29:33;;;;;;;5.35;1.00;;;;;;;;;;5004324;28;20072;-87
2024/01/15 13:32:01;;;;;;;5.35;1.30;;;;;;;;;;4989935;28;20123;-88
2024/01/15 13:34:28;;;;;;;6.32;1.20;;;;;;;;;;5004532;28;22109;-87
2024/01/15 13:36:56;;;;;;;6.47;1.25;;;;;;;;;;4986600;28;20049;-87
2024/01/15 13:39:23;;;;;;;4.35;1.30;;;;;;;;;;4983014;28;20136;-87
2024/01/15 13:41:50;;;;;;;6.07;1.73;;;;;;;;;;4994747;28;20079;-87
2024/01/15 13:44:18;;;;;;;7.78;1.25;;;;;;;;;;4984291;28;20045;-87
2024/01/15 13:46:46;;;;;;;7.60;1.42;;;;;;;;;;5001170;28;20512;-87
2024/01/15 13:49:14;;;;;;;4.53;1.27;;;;;;;;;;5005839;28;20041;-87
2024/01/15 13:51:41;;;;;;;2.33;1.20;;;;;;;;;;4997140;28;20051;-87
2024/01/15 13:54:09;;;;;;;4.00;0.80;;;;;;;;;;5003944;28;20744;-87
2024/01/15 13:56:37;;;;;;;5.25;1.08;;;;;;;;;;4981430;28;20037;-87
2024/01/15 13:59:05;;;;;;;3.25;0.73;;;;;;;;;;5017816;28;20083;-87
2024/01/15 14:01:33;;;;;;;2.17;0.60;;;;;;;;;;4996958;28;23572;-87
2024/01/15 14:04:00;;;;;;;4.55;0.73;;;;;;;;;;5004344;28;20048;-87
2024/01/15 14:06:31;;;;;;;2.15;1.17;;;;;;;;;;5001609;28;20041;-88
2024/01/15 14:08:58;;;;;;;4.80;1.75;;;;;;;;;;4999465;28;20149;-87
2024/01/15 14:11:25;;;;;;;5.38;1.33;;;;;;;;;;5002209;28;20095;-87
2024/01/15 14:13:56;;;;;;;3.00;0.95;;;;;;;;;;4984039;28;20570;-87
2024/01/15 14:16:23;;;;;;;4.72;0.70;;;;;;;;;;5020377;28;20032;-88
2024/01/15 14:18:51;;;;;;;1.17;0.50;;;;;;;;;;4981220;28;20045;-88
2024/01/15 14:21:19;;;;;;;3.15;0.82;;;;;;;;;;5003511;28;20045;-87
2024/01/15 14:23:48;;;;;;;8.57;1.05;;;;;;;;;;4997181;28;20386;-87
2024/01/15 14:26:18;;;;;;;3.22;0.70;;;;;;;;;;4997147;28;20045;-87
2024/01/15 14:28:48;;;;;;;2.95;0.90;;;;;;;;;;5014624;28;20400;-87
2024/01/15 14:31:15;;;;;;;6.28;1.05;;;;;;;;;;4985996;28;20028;-87
2024/01/15 14:33:43;;;;;;;6.28;1.10;;;;;;;;;;5012691;28;20033;-87
2024/01/15 14:36:11;;;;;;;5.30;1.00;;;;;;;;;;5014735;28;20040;-87
2024/01/15 14:38:38;;;;;;;8.75;2.25;;;;;;;;;;5014101;28;20068;-87
2024/01/15 14:41:05;;;;;;;6.40;1.05;;;;;;;;;;4999730;28;20048;-87
2024/01/15 14:43:57;;;;;;;4.60;1.35;;;;;;;;;;5014240;28;20039;-86
2024/01/15 15:41:59;;;;;;;2.67;1.38;;;;;;;;;;4930049;28;20071;-85
2024/01/15 15:45:51;;;;;;;1.98;0.80;;;;;;;;;;4923786;28;20050;-85
2024/01/15 15:49:16;;;;;;;;;;;;;;;;;;;;;
2024/01/15 15:52:40;;;;;;;4.10;0.80;;;;;;;;;;4873308;28;20051;-85
2024/01/15 15:56:06;;;;;;;;;;;;;;;;;;;;;
2024/01/15 15:58:44;;;;;;;1.50;0.90;;;;;;;;;;4936951;28;20067;-85
2024/01/15 16:02:12;;;;;;;4.53;0.90;;;;;;;;;;4907142;28;20055;-85
2024/01/15 16:18:55;;;;;;;3.25;0.93;;;;;;;;;;4788675;29;20053;-85
2024/01/15 17:05:05;;;;;;;5.63;1.40;;;;;;;;;;4773181;29;20050;-85
2024/01/15 17:08:04;;;;;;;5.35;1.83;;;;;;;;;;4754742;29;20047;-85
2024/01/15 17:10:58;;;;;;;1.50;1.20;;;;;;;;;;4771692;29;20055;-84
2024/01/15 17:13:34;;;;;;;3.63;1.13;;;;;;;;;;4815723;29;20058;-85
2024/01/15 17:16:15;;;;;;;3.42;1.50;;;;;;;;;;4814405;29;21086;-85
2024/01/15 17:19:14;;;;;;;4.03;1.67;;;;;;;;;;4825322;29;20045;-84
2024/01/15 17:21:57;;;;;;;4.15;1.33;;;;;;;;;;4810450;29;20053;-85
2024/01/15 17:24:50;;;;;;;3.05;1.25;;;;;;;;;;4833251;29;20093;-84
2024/01/15 17:27:26;;;;;;;5.97;1.60;;;;;;;;;;4868873;29;20040;-84
2024/01/15 17:30:14;;;;;;;3.75;1.52;;;;;;;;;;4862401;29;20062;-84
2024/01/15 17:32:51;;;;;;;6.10;1.48;;;;;;;;;;4865904;29;20071;-85
2024/01/15 17:42:08;;;;;;;;;;;;;;;;;;;;;
2024/01/15 17:53:11;;;;;;;4.15;1.38;;;;;;;;;;4750920;29;20127;-85
2024/01/15 18:06:33;;;;;;;3.42;0.82;;;;;;;;;;5099955;27;20415;-86
2024/01/15 18:09:00;;;;;;;4.13;1.63;;;;;;;;;;5071679;28;20392;-86
2024/01/15 18:11:28;;;;;;;2.47;1.05;;;;;;;;;;5068860;28;24400;-86
2024/01/15 18:13:56;;;;;;;5.88;1.60;;;;;;;;;;5065667;28;20361;-86
2024/01/15 18:16:23;;;;;;;6.40;1.20;;;;;;;;;;5059179;28;20672;-85
2024/01/15 18:18:50;;;;;;;6.93;1.08;;;;;;;;;;5086506;28;20105;-85
2024/01/15 18:21:21;;;;;;;4.68;1.15;;;;;;;;;;5063259;28;20101;-85
2024/01/15 18:23:50;;;;;;;3.25;1.15;;;;;;;;;;5072224;28;20088;-85
2024/01/15 18:26:17;;;;;;;6.22;1.30;;;;;;;;;;5092562;28;20937;-85
2024/01/15 18:28:45;;;;;;;3.10;1.38;;;;;;;;;;5069612;28;20085;-86
2024/01/15 18:31:12;;;;;;;2.22;1.20;;;;;;;;;;5088261;28;20045;-85
2024/01/15 18:33:39;;;;;;;3.63;1.20;;;;;;;;;;5069473;28;20127;-85
2024/01/15 18:36:07;;;;;;;3.05;1.33;;;;;;;;;;5074795;28;20039;-85
2024/01/15 18:38:34;;;;;;;3.70;1.17;;;;;;;;;;5065491;28;20124;-85
2024/01/15 18:41:03;;;;;;;3.78;1.00;;;;;;;;;;5067013;28;20051;-85